createdAt,value
2018-04-16T00:01:00.574Z,96.90
2018-04-16T00:03:29.086Z,96.80
2018-04-16T00:05:57.037Z,97.00
2018-04-16T00:08:25.322Z,96.80
2018-04-16T00:10:54.387Z,96.80
2018-04-16T00:13:22.174Z,96.80
2018-04-16T00:15:50.323Z,96.80
2018-04-16T00:18:18.831Z,96.80
2018-04-16T00:20:47.012Z,96.80
2018-04-16T00:23:16.734Z,96.80
2018-04-16T00:25:44.436Z,96.70
2018-04-16T00:28:12.619Z,96.80
2018-04-16T00:30:40.403Z,97.00
2018-04-16T00:33:14.879Z,97.00
2018-04-16T00:35:48.521Z,97.00
2018-04-16T00:38:22.063Z,96.90
2018-04-16T00:40:55.428Z,96.90
2018-04-16T00:43:29.236Z,97.00
2018-04-16T00:46:03.400Z,97.10
2018-04-16T00:48:36.796Z,96.80
2018-04-16T00:51:10.378Z,96.80
2018-04-16T00:53:55.790Z,96.80
2018-04-16T00:56:29.894Z,96.70
2018-04-16T00:59:03.080Z,96.70
2018-04-16T01:01:36.347Z,96.40
2018-04-16T01:04:09.897Z,96.20
2018-04-16T01:06:44.279Z,96.20
2018-04-16T01:09:18.684Z,96.00
2018-04-16T01:11:53.565Z,95.90
2018-04-16T01:14:27.960Z,95.70
2018-04-16T01:17:01.440Z,95.40
2018-04-16T01:19:36.594Z,95.50
2018-04-16T01:22:09.857Z,95.50
2018-04-16T01:24:43.289Z,95.60
2018-04-16T01:27:16.714Z,95.50
2018-04-16T01:32:55.182Z,95.00
2018-04-16T01:35:29.565Z,94.70
2018-04-16T01:38:02.949Z,94.70
2018-04-16T01:40:36.349Z,94.60
2018-04-16T01:43:09.657Z,94.70
2018-04-16T01:45:42.899Z,94.80
2018-04-16T01:48:16.319Z,94.80
2018-04-16T01:50:49.753Z,95.00
2018-04-16T01:53:23.087Z,95.20
2018-04-16T01:55:56.497Z,95.50
2018-04-16T01:58:29.693Z,95.60
2018-04-16T02:01:03.009Z,95.80
2018-04-16T02:03:36.199Z,95.90
2018-04-16T02:06:10.340Z,95.60
2018-04-16T02:08:43.740Z,95.80
2018-04-16T02:11:17.154Z,95.60
2018-04-16T02:13:50.362Z,95.60
2018-04-16T02:16:24.084Z,95.70
2018-04-16T02:18:58.220Z,95.90
2018-04-16T02:21:32.277Z,95.90
2018-04-16T02:24:05.588Z,95.80
2018-04-16T02:26:38.942Z,95.60
2018-04-16T02:29:12.605Z,95.50
2018-04-16T02:38:37.241Z,95.30
2018-04-16T02:41:10.645Z,95.00
2018-04-16T02:43:44.001Z,95.00
2018-04-16T02:46:18.455Z,95.10
2018-04-16T02:48:51.664Z,95.20
2018-04-16T02:51:25.453Z,95.00
2018-04-16T02:53:58.509Z,95.00
2018-04-16T02:56:32.483Z,95.10
2018-04-16T02:59:07.211Z,95.40
2018-04-16T03:01:40.700Z,95.40
2018-04-16T03:04:14.424Z,95.70
2018-04-16T03:06:49.103Z,96.20
2018-04-16T03:09:23.037Z,96.20
2018-04-16T03:15:01.300Z,96.10
2018-04-16T03:17:35.001Z,96.40
2018-04-16T03:20:08.327Z,96.30
2018-04-16T03:22:41.502Z,96.60
2018-04-16T03:25:14.855Z,96.50
2018-04-16T03:27:48.280Z,96.50
2018-04-16T03:30:21.594Z,96.50
2018-04-16T03:32:54.820Z,96.50
2018-04-16T03:35:28.974Z,96.50
2018-04-16T03:38:02.532Z,96.50
2018-04-16T03:40:35.884Z,96.50
2018-04-16T03:43:10.203Z,96.40
2018-04-16T03:45:43.504Z,96.50
2018-04-16T03:51:23.693Z,96.20
2018-04-16T03:53:51.968Z,96.10
2018-04-16T03:56:19.618Z,95.90
2018-04-16T03:58:47.289Z,95.80
2018-04-16T04:01:15.348Z,95.60
2018-04-16T04:03:43.102Z,95.60
2018-04-16T04:06:10.773Z,95.60
2018-04-16T04:08:38.469Z,95.50
2018-04-16T04:11:06.145Z,95.60
2018-04-16T04:13:34.381Z,95.70
2018-04-16T04:16:02.382Z,95.70
2018-04-16T04:18:30.054Z,95.90
2018-04-16T04:20:57.733Z,96.20
2018-04-16T04:23:37.300Z,96.00
2018-04-16T04:26:17.513Z,96.00
2018-04-16T04:28:57.157Z,96.00
2018-04-16T04:31:25.053Z,96.20
2018-04-16T04:33:53.468Z,96.30
2018-04-16T04:36:21.233Z,96.30
2018-04-16T04:38:48.877Z,96.30
2018-04-16T04:41:17.358Z,96.30
2018-04-16T04:43:45.025Z,96.30
2018-04-16T04:46:14.691Z,96.80
2018-04-16T04:48:42.398Z,96.80
2018-04-16T04:51:10.076Z,96.90
2018-04-16T04:53:37.797Z,97.00
2018-04-16T04:56:05.503Z,97.30
2018-04-16T04:58:34.251Z,97.80
2018-04-16T05:01:01.912Z,97.80
2018-04-16T05:03:29.721Z,97.80
2018-04-16T05:05:57.386Z,97.80
2018-04-16T05:08:25.457Z,97.80
2018-04-16T05:10:54.001Z,98.10
2018-04-16T05:13:21.644Z,98.10
2018-04-16T05:15:49.351Z,98.10
2018-04-16T05:18:17.029Z,98.50
2018-04-16T05:20:44.714Z,98.50
2018-04-16T05:23:13.472Z,98.40
2018-04-16T05:25:41.222Z,98.40
2018-04-16T05:28:09.090Z,98.40
2018-04-16T05:30:36.814Z,98.40
2018-04-16T05:33:05.956Z,98.40
2018-04-16T05:35:33.658Z,98.40
2018-04-16T05:38:01.336Z,98.50
2018-04-16T05:40:28.996Z,98.50
2018-04-16T05:42:57.536Z,98.50
2018-04-16T05:45:25.211Z,98.50
2018-04-16T05:47:52.913Z,98.60
2018-04-16T05:50:21.473Z,98.50
2018-04-16T05:52:49.958Z,98.70
2018-04-16T05:55:17.642Z,98.70
2018-04-16T05:57:46.280Z,98.70
2018-04-16T06:00:14.252Z,98.70
2018-04-16T06:02:43.184Z,98.50
2018-04-16T06:05:11.334Z,98.50
2018-04-16T06:07:39.054Z,98.60
2018-04-16T06:10:07.110Z,98.60
2018-04-16T06:12:35.342Z,98.50
2018-04-16T06:15:03.469Z,98.50
2018-04-16T06:17:31.766Z,98.50
2018-04-16T06:19:59.549Z,98.40
2018-04-16T06:22:28.171Z,98.40
2018-04-16T06:25:00.200Z,98.50
2018-04-16T06:27:27.982Z,98.30
2018-04-16T06:29:57.089Z,98.20
2018-04-16T06:32:25.875Z,98.20
2018-04-16T06:34:53.578Z,98.10
2018-04-16T06:37:21.987Z,98.00
2018-04-16T06:39:50.456Z,98.00
2018-04-16T06:42:18.157Z,98.00
2018-04-16T06:44:47.030Z,98.00
2018-04-16T06:47:16.049Z,97.50
2018-04-16T06:49:45.016Z,97.50
2018-04-16T06:52:16.228Z,97.40
2018-04-16T06:54:44.656Z,96.70
2018-04-16T06:57:12.701Z,96.70
2018-04-16T06:59:40.414Z,96.40
2018-04-16T07:02:11.271Z,96.20
2018-04-16T07:04:40.445Z,96.30
2018-04-16T07:07:08.158Z,95.60
2018-04-16T07:09:35.846Z,95.50
2018-04-16T07:12:04.322Z,94.60
2018-04-16T07:14:31.991Z,94.60
2018-04-16T07:16:59.705Z,94.70
2018-04-16T07:19:27.382Z,94.60
2018-04-16T07:21:55.208Z,95.00
2018-04-16T07:24:23.921Z,94.80
2018-04-16T07:26:51.701Z,94.90
2018-04-16T07:29:19.656Z,94.90
2018-04-16T07:31:47.328Z,94.40
2018-04-16T07:34:14.980Z,94.10
2018-04-16T07:36:42.689Z,94.10
2018-04-16T07:39:10.395Z,94.10
2018-04-16T07:41:38.115Z,93.60
2018-04-16T07:44:05.782Z,93.50
2018-04-16T07:46:33.436Z,93.10
2018-04-16T07:49:02.027Z,93.00
2018-04-16T07:51:29.790Z,91.80
2018-04-16T07:53:58.278Z,91.30
2018-04-16T07:56:25.936Z,91.20
2018-04-16T07:58:53.649Z,90.50
2018-04-16T08:01:22.085Z,90.00
2018-04-16T08:03:49.749Z,90.00
2018-04-16T08:06:17.817Z,88.90
2018-04-16T08:08:45.714Z,88.80
2018-04-16T08:11:13.428Z,88.70
2018-04-16T08:13:41.172Z,88.60
2018-04-16T08:16:09.629Z,88.40
2018-04-16T08:18:37.306Z,88.40
2018-04-16T08:21:05.269Z,88.20
2018-04-16T08:23:33.018Z,87.00
2018-04-16T08:26:00.680Z,85.10
2018-04-16T08:28:28.956Z,83.10
2018-04-16T08:30:56.599Z,82.00
2018-04-16T08:33:24.257Z,83.30
2018-04-16T08:35:51.989Z,82.80
2018-04-16T08:38:19.657Z,82.30
2018-04-16T08:40:47.299Z,83.40
2018-04-16T08:43:14.998Z,81.40
2018-04-16T08:45:42.657Z,81.00
2018-04-16T08:48:10.376Z,80.40
2018-04-16T08:50:38.758Z,77.30
2018-04-16T08:53:06.427Z,78.80
2018-04-16T08:55:34.081Z,78.70
2018-04-16T08:58:01.770Z,77.00
2018-04-16T09:00:29.420Z,78.40
2018-04-16T09:02:57.080Z,75.60
2018-04-16T09:05:25.693Z,74.80
2018-04-16T09:07:53.348Z,72.50
2018-04-16T09:10:20.999Z,72.50
2018-04-16T09:12:48.692Z,71.20
2018-04-16T09:15:16.385Z,69.70
2018-04-16T09:17:45.152Z,67.80
2018-04-16T09:20:12.804Z,67.70
2018-04-16T09:22:40.461Z,67.20
2018-04-16T09:25:08.148Z,67.90
2018-04-16T09:27:35.824Z,68.30
2018-04-16T09:30:04.323Z,65.00
2018-04-16T09:32:32.777Z,67.00
2018-04-16T09:35:00.447Z,66.90
2018-04-16T09:37:28.231Z,66.30
2018-04-16T09:39:57.660Z,62.90
2018-04-16T09:42:25.301Z,63.70
2018-04-16T09:44:53.779Z,63.00
2018-04-16T09:47:22.517Z,63.30
2018-04-16T09:49:50.182Z,63.20
2018-04-16T09:52:17.841Z,60.70
2018-04-16T09:54:45.525Z,61.20
2018-04-16T09:57:13.782Z,63.70
2018-04-16T09:59:41.412Z,65.60
2018-04-16T10:02:15.595Z,67.90
2018-04-16T10:04:43.650Z,67.70
2018-04-16T10:07:11.895Z,68.70
2018-04-16T10:09:39.599Z,67.30
2018-04-16T10:12:07.276Z,68.10
2018-04-16T10:14:35.941Z,68.70
2018-04-16T10:17:03.606Z,65.10
2018-04-16T10:19:31.294Z,65.70
2018-04-16T10:21:58.993Z,65.50
2018-04-16T10:24:27.700Z,63.50
2018-04-16T10:26:55.460Z,63.60
2018-04-16T10:29:24.041Z,62.00
2018-04-16T10:31:52.530Z,61.00
2018-04-16T10:34:20.976Z,57.70
2018-04-16T10:36:48.796Z,57.60
2018-04-16T10:39:16.485Z,58.00
2018-04-16T10:41:44.195Z,55.70
2018-04-16T10:44:12.664Z,54.80
2018-04-16T10:46:40.345Z,54.80
2018-04-16T10:49:08.024Z,55.00
2018-04-16T10:51:36.518Z,55.80
2018-04-16T10:54:04.212Z,55.80
2018-04-16T10:56:31.869Z,55.80
2018-04-16T10:58:59.556Z,55.90
2018-04-16T11:01:27.235Z,56.10
2018-04-16T11:03:54.928Z,55.60
2018-04-16T11:06:22.562Z,55.60
2018-04-16T11:08:50.216Z,55.80
2018-04-16T11:11:17.911Z,55.20
2018-04-16T11:13:45.624Z,54.50
2018-04-16T11:16:13.574Z,54.40
2018-04-16T11:18:41.261Z,55.50
2018-04-16T11:21:09.030Z,55.00
2018-04-16T11:23:36.733Z,55.40
2018-04-16T11:26:04.672Z,55.90
2018-04-16T11:28:32.328Z,54.70
2018-04-16T11:31:00.365Z,55.20
2018-04-16T11:33:28.141Z,54.80
2018-04-16T11:35:56.537Z,56.00
2018-04-16T11:38:24.537Z,55.30
2018-04-16T11:40:52.269Z,53.70
2018-04-16T11:43:19.918Z,53.60
2018-04-16T11:45:47.602Z,53.70
2018-04-16T11:48:15.292Z,54.00
2018-04-16T11:50:43.078Z,54.90
2018-04-16T11:53:11.024Z,54.50
2018-04-16T11:55:38.749Z,54.90
2018-04-16T11:58:07.591Z,54.70
2018-04-16T12:00:35.307Z,54.00
2018-04-16T12:03:02.980Z,53.70
2018-04-16T12:05:30.685Z,54.30
2018-04-16T12:07:58.381Z,54.90
2018-04-16T12:10:26.041Z,52.60
2018-04-16T12:12:53.808Z,50.70
2018-04-16T12:15:21.514Z,50.40
2018-04-16T12:17:50.241Z,49.00
2018-04-16T12:20:18.433Z,48.90
2018-04-16T12:22:46.137Z,48.70
2018-04-16T12:25:13.818Z,49.30
2018-04-16T12:27:41.554Z,48.60
2018-04-16T12:30:09.179Z,48.00
2018-04-16T12:32:36.909Z,47.30
2018-04-16T12:35:05.335Z,48.70
2018-04-16T12:37:33.044Z,48.70
2018-04-16T12:40:00.733Z,48.10
2018-04-16T12:42:28.407Z,47.80
2018-04-16T12:44:56.072Z,47.10
2018-04-16T12:47:23.771Z,46.90
2018-04-16T12:49:51.451Z,48.30
2018-04-16T12:52:19.108Z,48.70
2018-04-16T12:54:46.789Z,48.30
2018-04-16T12:57:14.461Z,46.80
2018-04-16T12:59:43.157Z,45.70
2018-04-16T13:02:10.808Z,45.70
2018-04-16T13:04:38.500Z,44.90
2018-04-16T13:07:07.851Z,43.50
2018-04-16T13:09:35.485Z,43.40
2018-04-16T13:12:03.374Z,44.20
2018-04-16T13:14:31.050Z,43.80
2018-04-16T13:16:58.698Z,43.50
2018-04-16T13:19:26.407Z,43.10
2018-04-16T13:21:54.044Z,43.10
2018-04-16T13:24:21.700Z,42.20
2018-04-16T13:26:49.391Z,43.10
2018-04-16T13:29:17.131Z,42.10
2018-04-16T13:31:45.401Z,42.70
2018-04-16T13:34:13.074Z,42.10
2018-04-16T13:36:40.749Z,43.30
2018-04-16T13:39:08.883Z,44.30
2018-04-16T13:41:37.297Z,42.80
2018-04-16T13:44:04.956Z,42.70
2018-04-16T13:46:33.532Z,43.00
2018-04-16T13:49:01.454Z,42.70
2018-04-16T13:51:29.215Z,42.90
2018-04-16T13:53:57.799Z,43.10
2018-04-16T13:56:25.440Z,43.70
2018-04-16T13:58:53.535Z,43.70
2018-04-16T14:01:21.224Z,42.70
2018-04-16T14:03:48.972Z,41.80
2018-04-16T14:06:16.633Z,42.20
2018-04-16T14:08:44.288Z,42.20
2018-04-16T14:11:12.202Z,41.50
2018-04-16T14:13:40.716Z,41.90
2018-04-16T14:16:08.438Z,41.90
2018-04-16T14:18:36.090Z,43.00
2018-04-16T14:21:03.860Z,42.40
2018-04-16T14:23:31.566Z,42.90
2018-04-16T14:25:59.233Z,43.40
2018-04-16T14:28:27.321Z,43.80
2018-04-16T14:30:54.959Z,43.10
2018-04-16T14:33:22.599Z,44.30
2018-04-16T14:35:50.285Z,43.70
2018-04-16T14:38:18.368Z,42.90
2018-04-16T14:40:46.840Z,41.90
2018-04-16T14:43:15.281Z,42.50
2018-04-16T14:45:43.454Z,42.40
2018-04-16T14:48:11.128Z,41.40
2018-04-16T14:50:38.785Z,41.20
2018-04-16T14:53:06.468Z,40.50
2018-04-16T14:55:34.157Z,41.10
2018-04-16T14:58:02.486Z,41.20
2018-04-16T15:00:30.197Z,41.50
2018-04-16T15:02:57.930Z,42.60
2018-04-16T15:05:25.593Z,41.30
2018-04-16T15:07:53.284Z,40.80
2018-04-16T15:10:21.493Z,39.80
2018-04-16T15:12:51.373Z,41.50
2018-04-16T15:15:19.029Z,41.40
2018-04-16T15:17:48.548Z,42.40
2018-04-16T15:20:16.390Z,43.20
2018-04-16T15:22:44.080Z,43.60
2018-04-16T15:25:11.767Z,42.50
2018-04-16T15:27:40.181Z,42.40
2018-04-16T15:30:07.832Z,42.30
2018-04-16T15:32:35.525Z,42.20
2018-04-16T15:35:03.365Z,41.80
2018-04-16T15:37:31.540Z,41.20
2018-04-16T15:39:59.203Z,41.60
2018-04-16T15:42:27.633Z,38.80
2018-04-16T15:44:56.553Z,38.80
2018-04-16T15:47:24.294Z,39.40
2018-04-16T15:49:52.348Z,40.00
2018-04-16T15:52:20.022Z,38.50
2018-04-16T15:54:47.673Z,38.10
2018-04-16T15:57:15.759Z,37.90
2018-04-16T15:59:43.414Z,37.80
2018-04-16T16:02:11.068Z,37.80
2018-04-16T16:04:38.769Z,39.30
2018-04-16T16:07:06.455Z,40.50
2018-04-16T16:09:34.148Z,40.80
2018-04-16T16:12:01.811Z,40.80
2018-04-16T16:14:30.275Z,41.50
2018-04-16T16:16:57.926Z,41.50
2018-04-16T16:19:25.646Z,42.00
2018-04-16T16:21:53.756Z,42.10
2018-04-16T16:24:21.537Z,42.30
2018-04-16T16:26:50.282Z,42.30
2018-04-16T16:29:19.853Z,42.30
2018-04-16T16:31:47.508Z,42.60
2018-04-16T16:34:15.212Z,42.70
2018-04-16T16:36:43.595Z,43.10
2018-04-16T16:39:11.254Z,42.80
2018-04-16T16:41:39.000Z,43.10
2018-04-16T16:44:06.660Z,43.60
2018-04-16T16:46:34.351Z,42.80
2018-04-16T16:49:02.248Z,42.90
2018-04-16T16:51:29.963Z,43.40
2018-04-16T16:53:58.810Z,43.10
2018-04-16T16:56:26.478Z,42.40
2018-04-16T16:58:54.374Z,42.10
2018-04-16T17:01:22.243Z,42.60
2018-04-16T17:03:51.066Z,42.40
2018-04-16T17:06:20.144Z,43.00
2018-04-16T17:08:49.351Z,43.70
2018-04-16T17:11:17.729Z,43.70
2018-04-16T17:13:46.553Z,44.70
2018-04-16T17:16:14.642Z,44.60
2018-04-16T17:18:42.395Z,45.40
2018-04-16T17:21:10.957Z,44.90
2018-04-16T17:23:39.440Z,45.50
2018-04-16T17:26:08.487Z,46.20
2018-04-16T17:28:37.146Z,46.20
2018-04-16T17:31:06.842Z,46.80
2018-04-16T17:33:34.788Z,46.80
2018-04-16T17:36:05.745Z,46.90
2018-04-16T17:38:34.819Z,47.50
2018-04-16T17:41:02.887Z,47.40
2018-04-16T17:43:30.734Z,47.60
2018-04-16T17:45:59.301Z,47.70
2018-04-16T17:48:30.184Z,47.90
2018-04-16T17:50:59.236Z,48.10
2018-04-16T17:53:28.373Z,48.50
2018-04-16T17:55:57.446Z,48.50
2018-04-16T17:58:25.327Z,49.00
2018-04-16T18:00:53.451Z,49.60
2018-04-16T18:03:22.299Z,50.40
2018-04-16T18:05:50.332Z,50.40
2018-04-16T18:08:20.814Z,50.40
2018-04-16T18:10:50.847Z,50.70
2018-04-16T18:13:18.905Z,50.70
2018-04-16T18:15:47.259Z,50.70
2018-04-16T18:18:15.133Z,50.70
2018-04-16T18:20:42.876Z,50.90
2018-04-16T18:23:11.015Z,50.50
2018-04-16T18:25:38.842Z,51.00
2018-04-16T18:28:08.451Z,51.10
2018-04-16T18:30:36.287Z,51.50
2018-04-16T18:33:04.410Z,51.60
2018-04-16T18:35:33.282Z,51.50
2018-04-16T18:38:01.715Z,51.70
2018-04-16T18:40:29.729Z,51.20
2018-04-16T18:42:57.534Z,51.70
2018-04-16T18:45:25.407Z,52.30
2018-04-16T18:47:53.998Z,52.60
2018-04-16T18:50:21.816Z,53.40
2018-04-16T18:52:50.269Z,53.00
2018-04-16T18:55:18.809Z,53.00
2018-04-16T18:57:47.423Z,53.30
2018-04-16T19:00:15.287Z,53.40
2018-04-16T19:02:43.321Z,53.50
2018-04-16T19:05:11.061Z,53.50
2018-04-16T19:07:38.829Z,53.40
2018-04-16T19:10:07.400Z,53.60
2018-04-16T19:12:35.160Z,53.90
2018-04-16T19:15:03.061Z,53.80
2018-04-16T19:17:32.896Z,54.10
2018-04-16T19:20:02.543Z,54.10
2018-04-16T19:22:31.242Z,54.70
2018-04-16T19:25:02.761Z,54.20
2018-04-16T19:27:36.156Z,54.30
2018-04-16T19:30:05.502Z,54.40
2018-04-16T19:32:39.751Z,54.50
2018-04-16T19:35:08.347Z,54.50
2018-04-16T19:37:39.296Z,54.90
2018-04-16T19:40:09.672Z,54.90
2018-04-16T19:42:45.835Z,54.80
2018-04-16T19:45:13.593Z,55.50
2018-04-16T19:47:42.546Z,55.10
2018-04-16T19:50:10.678Z,55.40
2018-04-16T19:52:38.366Z,55.70
2018-04-16T19:55:06.142Z,56.50
2018-04-16T19:57:39.878Z,56.40
2018-04-16T20:00:09.939Z,56.90
2018-04-16T20:02:44.917Z,57.40
2018-04-16T20:05:14.080Z,59.00
2018-04-16T20:07:46.221Z,58.20
2018-04-16T20:10:17.380Z,58.30
2018-04-16T20:12:45.188Z,58.40
2018-04-16T20:15:15.029Z,58.60
2018-04-16T20:17:42.689Z,58.60
2018-04-16T20:20:11.137Z,59.00
2018-04-16T20:22:40.276Z,59.00
2018-04-16T20:25:07.966Z,59.10
2018-04-16T20:27:35.713Z,59.20
2018-04-16T20:30:04.741Z,59.30
2018-04-16T20:32:33.160Z,59.60
2018-04-16T20:35:03.463Z,59.50
2018-04-16T20:37:32.810Z,59.40
2018-04-16T20:40:01.347Z,59.60
2018-04-16T20:42:29.439Z,59.80
2018-04-16T20:44:58.379Z,60.00
2018-04-16T20:47:26.457Z,60.20
2018-04-16T20:49:55.706Z,60.30
2018-04-16T20:52:24.424Z,60.20
2018-04-16T20:54:53.277Z,60.10
2018-04-16T20:57:22.389Z,60.20
2018-04-16T20:59:51.160Z,60.20
2018-04-16T21:02:18.861Z,60.40
2018-04-16T21:04:47.421Z,60.30
2018-04-16T21:07:15.182Z,60.30
2018-04-16T21:09:43.451Z,60.30
2018-04-16T21:12:11.180Z,60.20
2018-04-16T21:14:39.645Z,60.50
2018-04-16T21:17:08.089Z,59.90
2018-04-16T21:19:36.570Z,59.90
2018-04-16T21:22:05.441Z,60.00
2018-04-16T21:24:33.208Z,60.10
2018-04-16T21:27:01.283Z,60.00
2018-04-16T21:29:29.012Z,60.30
2018-04-16T21:31:57.840Z,60.10
2018-04-16T21:34:25.501Z,59.90
2018-04-16T21:36:53.166Z,59.80
2018-04-16T21:39:21.245Z,59.70
2018-04-16T21:41:48.897Z,59.60
2018-04-16T21:44:17.370Z,59.60
2018-04-16T21:46:46.005Z,59.70
2018-04-16T21:49:14.044Z,59.70
2018-04-16T21:51:42.065Z,59.60
2018-04-16T21:54:10.136Z,59.90
2018-04-16T21:56:40.492Z,59.90
2018-04-16T21:59:08.509Z,59.60
2018-04-16T22:01:36.295Z,59.50
2018-04-16T22:04:04.487Z,59.40
2018-04-16T22:06:33.748Z,59.50
2018-04-16T22:09:04.378Z,59.60
2018-04-16T22:11:33.563Z,59.50
2018-04-16T22:14:02.188Z,60.10
2018-04-16T22:16:29.896Z,60.10
2018-04-16T22:18:57.741Z,60.30
2018-04-16T22:21:25.533Z,60.60
2018-04-16T22:23:54.998Z,61.10
2018-04-16T22:26:23.370Z,61.00
2018-04-16T22:28:51.098Z,61.40
2018-04-16T22:31:19.517Z,61.30
2018-04-16T22:33:47.793Z,61.60
2018-04-16T22:36:16.788Z,62.10
2018-04-16T22:38:44.465Z,62.30
2018-04-16T22:41:13.754Z,62.40
2018-04-16T22:43:45.683Z,62.70
2018-04-16T22:46:16.635Z,62.70
2018-04-16T22:48:44.438Z,63.00
2018-04-16T22:51:12.229Z,63.30
2018-04-16T22:53:40.378Z,63.60
2018-04-16T22:56:11.099Z,63.80
2018-04-16T22:58:38.841Z,64.30
2018-04-16T23:01:10.156Z,64.90
2018-04-16T23:03:39.380Z,65.20
2018-04-16T23:06:09.701Z,65.40
2018-04-16T23:08:40.537Z,65.40
2018-04-16T23:11:09.930Z,65.40
2018-04-16T23:13:40.300Z,65.60
2018-04-16T23:16:08.849Z,66.50
2018-04-16T23:18:37.515Z,66.40
2018-04-16T23:21:09.354Z,66.50
2018-04-16T23:23:39.847Z,66.50
2018-04-16T23:26:08.524Z,66.50
2018-04-16T23:28:37.543Z,67.00
2018-04-16T23:31:08.168Z,67.10
2018-04-16T23:33:36.086Z,67.10
2018-04-16T23:36:07.577Z,67.20
2018-04-16T23:38:37.515Z,67.20
2018-04-16T23:41:08.046Z,67.00
2018-04-16T23:43:37.330Z,67.00
2018-04-16T23:46:05.895Z,67.00
2018-04-16T23:48:35.179Z,66.70
2018-04-16T23:51:03.495Z,66.90
2018-04-16T23:53:31.672Z,67.30
2018-04-16T23:55:59.920Z,67.30
2018-04-16T23:58:28.286Z,67.40
